BLY7464 EGCC-EGSH
Flight info
| Callsign | BLY7464 |
|---|---|
| Flight time | 0h 34m |
| Altitude | 17000 |
| Route | DESIG L603 DOLAS |
| Aircraft | A320/M-SDE3FGHIRWY/LB1 |
Departure
| Time | 2026-05-04 14:44 |
|---|---|
| Airport | Manchester Airport (EGCC) |
Arrival
| Time | 2026-05-04 15:19 |
|---|---|
| Airport | Norwich Airport (EGSH) |
| Time | Latitude | Longitude | Altitude | Speed | Heading |
|---|---|---|---|---|---|
| 2026-05-04 14:10 | 53.36859 | -2.28618 | 255 ft | 0 kts | 315° |
| 2026-05-04 14:11 | 53.36857 | -2.28614 | 255 ft | 0 kts | 315° |
| 2026-05-04 14:30 | 53.36851 | -2.28604 | 255 ft | 4 kts | 312° |
| 2026-05-04 14:30 | 53.36835 | -2.28570 | 255 ft | 4 kts | 298° |
| 2026-05-04 14:30 | 53.36825 | -2.28483 | 255 ft | 4 kts | 253° |
| 2026-05-04 14:31 | 53.36836 | -2.28443 | 255 ft | 4 kts | 231° |
| 2026-05-04 14:31 | 53.36846 | -2.28426 | 255 ft | 1 kts | 224° |
| 2026-05-04 14:34 | 53.36845 | -2.28426 | 255 ft | 0 kts | 224° |
| 2026-05-04 14:34 | 53.36838 | -2.28438 | 255 ft | 3 kts | 224° |
| 2026-05-04 14:34 | 53.36820 | -2.28467 | 255 ft | 5 kts | 224° |
| 2026-05-04 14:34 | 53.36792 | -2.28514 | 255 ft | 7 kts | 224° |
| 2026-05-04 14:35 | 53.36752 | -2.28580 | 255 ft | 9 kts | 224° |
| 2026-05-04 14:35 | 53.36700 | -2.28665 | 255 ft | 12 kts | 224° |
| 2026-05-04 14:35 | 53.36637 | -2.28769 | 255 ft | 14 kts | 223° |
| 2026-05-04 14:35 | 53.36554 | -2.28718 | 255 ft | 15 kts | 134° |
| 2026-05-04 14:36 | 53.36484 | -2.28596 | 255 ft | 14 kts | 134° |
| 2026-05-04 14:36 | 53.36415 | -2.28458 | 255 ft | 17 kts | 118° |
| 2026-05-04 14:36 | 53.36347 | -2.28289 | 255 ft | 18 kts | 136° |
| 2026-05-04 14:36 | 53.36275 | -2.28169 | 255 ft | 15 kts | 135° |
| 2026-05-04 14:37 | 53.36198 | -2.28038 | 255 ft | 16 kts | 134° |
| 2026-05-04 14:37 | 53.36121 | -2.27928 | 255 ft | 13 kts | 142° |
| 2026-05-04 14:37 | 53.36047 | -2.27832 | 255 ft | 12 kts | 142° |
| 2026-05-04 14:37 | 53.35973 | -2.27744 | 255 ft | 14 kts | 151° |
| 2026-05-04 14:38 | 53.35882 | -2.27730 | 255 ft | 11 kts | 184° |
| 2026-05-04 14:38 | 53.35800 | -2.27708 | 251 ft | 10 kts | 144° |
| 2026-05-04 14:38 | 53.35739 | -2.27648 | 249 ft | 10 kts | 159° |
| 2026-05-04 14:38 | 53.35704 | -2.27626 | 247 ft | 1 kts | 160° |
| 2026-05-04 14:39 | 53.35681 | -2.27605 | 247 ft | 6 kts | 146° |
| 2026-05-04 14:39 | 53.35648 | -2.27564 | 246 ft | 6 kts | 143° |
| 2026-05-04 14:39 | 53.35606 | -2.27508 | 245 ft | 10 kts | 140° |
| 2026-05-04 14:40 | 53.35540 | -2.27416 | 247 ft | 6 kts | 140° |
| 2026-05-04 14:40 | 53.35481 | -2.27335 | 248 ft | 14 kts | 142° |
| 2026-05-04 14:40 | 53.35393 | -2.27219 | 246 ft | 17 kts | 145° |
| 2026-05-04 14:40 | 53.35293 | -2.27201 | 241 ft | 16 kts | 193° |
| 2026-05-04 14:41 | 53.35233 | -2.27223 | 239 ft | 0 kts | 192° |
| 2026-05-04 14:41 | 53.35200 | -2.27235 | 234 ft | 9 kts | 192° |
| 2026-05-04 14:41 | 53.35151 | -2.27252 | 230 ft | 4 kts | 191° |
| 2026-05-04 14:42 | 53.35025 | -2.27304 | 226 ft | 14 kts | 218° |
| 2026-05-04 14:42 | 53.34979 | -2.27383 | 225 ft | 0 kts | 233° |
| 2026-05-04 14:43 | 53.34978 | -2.27383 | 225 ft | 0 kts | 233° |
| 2026-05-04 14:43 | 53.34919 | -2.27510 | 223 ft | 45 kts | 231° |
| 2026-05-04 14:43 | 53.34580 | -2.28210 | 229 ft | 106 kts | 230° |
| 2026-05-04 14:43 | 53.34010 | -2.29382 | 234 ft | 150 kts | 230° |
| 2026-05-04 14:44 | 53.33295 | -2.30773 | 656 ft | 158 kts | 228° |
| 2026-05-04 14:44 | 53.32597 | -2.32195 | 1325 ft | 158 kts | 232° |
| 2026-05-04 14:44 | 53.31949 | -2.33680 | 1917 ft | 160 kts | 243° |
| 2026-05-04 14:44 | 53.31624 | -2.35552 | 2246 ft | 179 kts | 267° |
| 2026-05-04 14:45 | 53.31848 | -2.37712 | 2551 ft | 200 kts | 294° |
| 2026-05-04 14:45 | 53.32710 | -2.39564 | 3030 ft | 210 kts | 322° |
| 2026-05-04 14:45 | 53.34101 | -2.40641 | 3365 ft | 235 kts | 342° |
| 2026-05-04 14:45 | 53.35168 | -2.41203 | 3665 ft | 250 kts | 342° |
| 2026-05-04 14:46 | 53.36871 | -2.42095 | 4412 ft | 260 kts | 342° |
| 2026-05-04 14:46 | 53.38623 | -2.43019 | 4878 ft | 266 kts | 342° |
| 2026-05-04 14:46 | 53.40385 | -2.43953 | 4992 ft | 265 kts | 342° |
| 2026-05-04 14:46 | 53.42146 | -2.44892 | 5000 ft | 265 kts | 342° |
| 2026-05-04 14:47 | 53.43936 | -2.45561 | 4982 ft | 265 kts | 358° |
| 2026-05-04 14:47 | 53.45748 | -2.45092 | 4991 ft | 266 kts | 21° |
| 2026-05-04 14:47 | 53.47311 | -2.43471 | 4989 ft | 266 kts | 44° |
| 2026-05-04 14:47 | 53.48388 | -2.40952 | 4992 ft | 267 kts | 66° |
| 2026-05-04 14:48 | 53.48804 | -2.37925 | 4984 ft | 268 kts | 89° |
| 2026-05-04 14:48 | 53.48525 | -2.34829 | 4989 ft | 269 kts | 104° |
| 2026-05-04 14:48 | 53.48300 | -2.31727 | 4987 ft | 269 kts | 87° |
| 2026-05-04 14:48 | 53.48564 | -2.28618 | 4988 ft | 268 kts | 79° |
| 2026-05-04 14:49 | 53.48898 | -2.25531 | 4990 ft | 268 kts | 79° |
| 2026-05-04 14:49 | 53.49248 | -2.22403 | 4994 ft | 269 kts | 79° |
| 2026-05-04 14:49 | 53.49585 | -2.19328 | 4990 ft | 269 kts | 79° |
| 2026-05-04 14:49 | 53.49914 | -2.16235 | 4989 ft | 269 kts | 79° |
| 2026-05-04 14:50 | 53.50238 | -2.13141 | 5072 ft | 271 kts | 79° |
| 2026-05-04 14:50 | 53.50569 | -2.10004 | 5895 ft | 272 kts | 79° |
| 2026-05-04 14:50 | 53.50901 | -2.06857 | 6769 ft | 276 kts | 80° |
| 2026-05-04 14:50 | 53.51235 | -2.03657 | 7567 ft | 281 kts | 79° |
| 2026-05-04 14:51 | 53.51573 | -2.00399 | 8378 ft | 285 kts | 79° |
| 2026-05-04 14:51 | 53.51916 | -1.97092 | 9185 ft | 289 kts | 79° |
| 2026-05-04 14:51 | 53.52264 | -1.93742 | 9973 ft | 293 kts | 79° |
| 2026-05-04 14:51 | 53.52516 | -1.90264 | 10373 ft | 311 kts | 89° |
| 2026-05-04 14:52 | 53.52262 | -1.86524 | 10605 ft | 332 kts | 104° |
| 2026-05-04 14:52 | 53.51591 | -1.82809 | 11135 ft | 340 kts | 107° |
| 2026-05-04 14:52 | 53.50894 | -1.78936 | 11817 ft | 344 kts | 107° |
| 2026-05-04 14:52 | 53.50220 | -1.75117 | 12481 ft | 347 kts | 107° |
| 2026-05-04 14:53 | 53.49533 | -1.71192 | 13174 ft | 351 kts | 107° |
| 2026-05-04 14:53 | 53.48842 | -1.67246 | 13846 ft | 354 kts | 107° |
| 2026-05-04 14:53 | 53.48131 | -1.63216 | 14446 ft | 357 kts | 107° |
| 2026-05-04 14:53 | 53.47429 | -1.59253 | 15029 ft | 360 kts | 107° |
| 2026-05-04 14:54 | 53.46714 | -1.55220 | 15625 ft | 362 kts | 107° |
| 2026-05-04 14:54 | 53.45987 | -1.51148 | 16179 ft | 366 kts | 107° |
| 2026-05-04 14:54 | 53.45252 | -1.47039 | 16763 ft | 369 kts | 107° |
| 2026-05-04 14:54 | 53.44510 | -1.42900 | 17013 ft | 371 kts | 107° |
| 2026-05-04 14:55 | 53.43764 | -1.38769 | 17070 ft | 370 kts | 107° |
| 2026-05-04 14:55 | 53.43012 | -1.34640 | 17074 ft | 369 kts | 108° |
| 2026-05-04 14:55 | 53.42261 | -1.30526 | 17074 ft | 369 kts | 107° |
| 2026-05-04 14:55 | 53.41508 | -1.26388 | 17073 ft | 369 kts | 107° |
| 2026-05-04 14:56 | 53.40764 | -1.22280 | 17071 ft | 369 kts | 107° |
| 2026-05-04 14:56 | 53.40017 | -1.18156 | 17070 ft | 369 kts | 107° |
| 2026-05-04 14:56 | 53.39268 | -1.14027 | 17071 ft | 369 kts | 107° |
| 2026-05-04 14:56 | 53.38518 | -1.09916 | 17071 ft | 369 kts | 108° |
| 2026-05-04 14:57 | 53.37774 | -1.05854 | 17070 ft | 369 kts | 108° |
| 2026-05-04 14:57 | 53.37017 | -1.01731 | 17072 ft | 369 kts | 108° |
| 2026-05-04 14:57 | 53.36261 | -0.97615 | 17068 ft | 370 kts | 108° |
| 2026-05-04 14:57 | 53.35503 | -0.93497 | 17065 ft | 370 kts | 108° |
| 2026-05-04 14:58 | 53.34742 | -0.89379 | 17065 ft | 370 kts | 108° |
| 2026-05-04 14:58 | 53.33977 | -0.85256 | 17067 ft | 371 kts | 108° |
| 2026-05-04 14:58 | 53.33210 | -0.81132 | 17069 ft | 371 kts | 108° |
| 2026-05-04 14:58 | 53.32439 | -0.77003 | 17071 ft | 371 kts | 108° |
| 2026-05-04 14:59 | 53.31666 | -0.72875 | 17072 ft | 371 kts | 108° |
| 2026-05-04 14:59 | 53.30894 | -0.68752 | 17070 ft | 371 kts | 108° |
| 2026-05-04 14:59 | 53.29353 | -0.60511 | 17073 ft | 371 kts | 108° |
| 2026-05-04 15:00 | 53.28583 | -0.56391 | 17070 ft | 372 kts | 108° |
| 2026-05-04 15:00 | 53.27809 | -0.52271 | 17072 ft | 372 kts | 108° |
| 2026-05-04 15:00 | 53.27030 | -0.48163 | 17074 ft | 372 kts | 108° |
| 2026-05-04 15:01 | 53.25447 | -0.39866 | 17078 ft | 371 kts | 108° |
| 2026-05-04 15:01 | 53.24663 | -0.35759 | 17075 ft | 372 kts | 109° |
| 2026-05-04 15:01 | 53.23891 | -0.31714 | 17074 ft | 372 kts | 109° |
| 2026-05-04 15:01 | 53.23092 | -0.27518 | 17074 ft | 372 kts | 109° |
| 2026-05-04 15:02 | 53.22303 | -0.23388 | 17074 ft | 372 kts | 109° |
| 2026-05-04 15:02 | 53.21520 | -0.19282 | 17073 ft | 372 kts | 109° |
| 2026-05-04 15:02 | 53.20732 | -0.15162 | 17074 ft | 372 kts | 109° |
| 2026-05-04 15:02 | 53.19943 | -0.11046 | 17075 ft | 372 kts | 109° |
| 2026-05-04 15:03 | 53.19150 | -0.06931 | 17075 ft | 372 kts | 109° |
| 2026-05-04 15:03 | 53.18354 | -0.02820 | 17077 ft | 373 kts | 109° |
| 2026-05-04 15:03 | 53.17552 | 0.01294 | 17079 ft | 372 kts | 109° |
| 2026-05-04 15:03 | 53.16750 | 0.05399 | 17074 ft | 372 kts | 109° |
| 2026-05-04 15:04 | 53.15955 | 0.09457 | 17071 ft | 373 kts | 109° |
| 2026-05-04 15:04 | 53.15151 | 0.13565 | 17070 ft | 373 kts | 109° |
| 2026-05-04 15:04 | 53.14345 | 0.17674 | 17070 ft | 373 kts | 109° |
| 2026-05-04 15:04 | 53.13538 | 0.21782 | 17064 ft | 373 kts | 109° |
| 2026-05-04 15:05 | 53.12731 | 0.25891 | 17062 ft | 373 kts | 109° |
| 2026-05-04 15:05 | 53.11922 | 0.30003 | 17062 ft | 374 kts | 109° |
| 2026-05-04 15:05 | 53.11114 | 0.34108 | 17063 ft | 374 kts | 109° |
| 2026-05-04 15:05 | 53.10305 | 0.38198 | 17042 ft | 368 kts | 109° |
| 2026-05-04 15:06 | 53.09513 | 0.42203 | 16699 ft | 360 kts | 109° |
| 2026-05-04 15:06 | 53.08733 | 0.46148 | 16254 ft | 357 kts | 109° |
| 2026-05-04 15:06 | 53.07969 | 0.49997 | 15796 ft | 354 kts | 109° |
| 2026-05-04 15:07 | 53.06438 | 0.57678 | 15065 ft | 346 kts | 109° |
| 2026-05-04 15:07 | 53.05677 | 0.61470 | 14656 ft | 344 kts | 109° |
| 2026-05-04 15:07 | 53.04923 | 0.65226 | 14257 ft | 342 kts | 109° |
| 2026-05-04 15:07 | 53.04170 | 0.68980 | 13864 ft | 340 kts | 109° |
| 2026-05-04 15:08 | 53.03423 | 0.72691 | 13601 ft | 334 kts | 109° |
| 2026-05-04 15:08 | 53.02698 | 0.76287 | 13437 ft | 321 kts | 109° |
| 2026-05-04 15:08 | 53.02000 | 0.79748 | 12941 ft | 313 kts | 109° |
| 2026-05-04 15:08 | 53.01309 | 0.83158 | 12351 ft | 309 kts | 110° |
| 2026-05-04 15:09 | 53.00626 | 0.86520 | 11767 ft | 306 kts | 109° |
| 2026-05-04 15:09 | 52.99957 | 0.89810 | 11196 ft | 303 kts | 110° |
| 2026-05-04 15:09 | 52.99283 | 0.93117 | 10627 ft | 300 kts | 110° |
| 2026-05-04 15:10 | 52.97955 | 0.99629 | 9469 ft | 295 kts | 110° |
| 2026-05-04 15:10 | 52.97201 | 1.02779 | 8869 ft | 290 kts | 125° |
| 2026-05-04 15:10 | 52.93982 | 1.05324 | 8228 ft | 255 kts | 186° |
| 2026-05-04 15:11 | 52.92238 | 1.04963 | 7843 ft | 248 kts | 192° |
| 2026-05-04 15:11 | 52.90552 | 1.04497 | 7386 ft | 246 kts | 192° |
| 2026-05-04 15:11 | 52.88844 | 1.04020 | 6735 ft | 252 kts | 192° |
| 2026-05-04 15:11 | 52.87090 | 1.03526 | 6048 ft | 259 kts | 192° |
| 2026-05-04 15:12 | 52.85298 | 1.03250 | 5379 ft | 264 kts | 183° |
| 2026-05-04 15:12 | 52.83480 | 1.03258 | 4989 ft | 257 kts | 180° |
| 2026-05-04 15:12 | 52.81730 | 1.03360 | 4697 ft | 246 kts | 179° |
| 2026-05-04 15:12 | 52.80060 | 1.03471 | 4435 ft | 234 kts | 180° |
| 2026-05-04 15:13 | 52.78475 | 1.03560 | 4199 ft | 222 kts | 179° |
| 2026-05-04 15:13 | 52.76969 | 1.03624 | 3962 ft | 212 kts | 180° |
| 2026-05-04 15:13 | 52.75530 | 1.03673 | 3739 ft | 201 kts | 182° |
| 2026-05-04 15:13 | 52.74162 | 1.03715 | 3552 ft | 192 kts | 182° |
| 2026-05-04 15:14 | 52.72838 | 1.03753 | 3351 ft | 189 kts | 180° |
| 2026-05-04 15:14 | 52.71523 | 1.03788 | 3134 ft | 189 kts | 180° |
| 2026-05-04 15:14 | 52.70240 | 1.03819 | 2915 ft | 182 kts | 180° |
| 2026-05-04 15:14 | 52.68984 | 1.03848 | 2719 ft | 175 kts | 178° |
| 2026-05-04 15:15 | 52.67881 | 1.04432 | 2553 ft | 170 kts | 135° |
| 2026-05-04 15:15 | 52.67401 | 1.06107 | 2334 ft | 161 kts | 87° |
| 2026-05-04 15:15 | 52.67575 | 1.07891 | 2001 ft | 157 kts | 80° |
| 2026-05-04 15:16 | 52.67596 | 1.11394 | 1493 ft | 146 kts | 86° |
| 2026-05-04 15:16 | 52.67578 | 1.13031 | 1362 ft | 141 kts | 84° |
| 2026-05-04 15:16 | 52.67559 | 1.16221 | 1098 ft | 138 kts | 86° |
| 2026-05-04 15:17 | 52.67556 | 1.17810 | 963 ft | 138 kts | 86° |
| 2026-05-04 15:17 | 52.67562 | 1.20966 | 693 ft | 138 kts | 85° |
| 2026-05-04 15:17 | 52.67569 | 1.22548 | 595 ft | 137 kts | 84° |
| 2026-05-04 15:18 | 52.67561 | 1.24130 | 473 ft | 136 kts | 86° |
| 2026-05-04 15:18 | 52.67568 | 1.25722 | 330 ft | 138 kts | 86° |
| 2026-05-04 15:18 | 52.67590 | 1.27293 | 168 ft | 136 kts | 87° |
| 2026-05-04 15:19 | 52.67569 | 1.29372 | 111 ft | 24 kts | 132° |
| 2026-05-04 15:19 | 52.67589 | 1.29450 | 111 ft | 10 kts | 330° |
| 2026-05-04 15:19 | 52.67601 | 1.29230 | 111 ft | 13 kts | 268° |
| 2026-05-04 15:20 | 52.67599 | 1.29073 | 110 ft | 14 kts | 268° |
| 2026-05-04 15:20 | 52.67597 | 1.28906 | 110 ft | 15 kts | 269° |
| 2026-05-04 15:20 | 52.67568 | 1.28837 | 113 ft | 9 kts | 216° |
| 2026-05-04 15:20 | 52.67516 | 1.28774 | 113 ft | 10 kts | 217° |
| 2026-05-04 15:21 | 52.67456 | 1.28701 | 114 ft | 12 kts | 217° |
| 2026-05-04 15:21 | 52.67388 | 1.28614 | 114 ft | 13 kts | 222° |
| 2026-05-04 15:21 | 52.67217 | 1.28633 | 113 ft | 12 kts | 167° |
| 2026-05-04 15:22 | 52.67181 | 1.28643 | 114 ft | 0 kts | 173° |
| 2026-05-04 15:22 | 52.67179 | 1.28644 | 114 ft | 0 kts | 173° |